sensor_id;sensor_type;location;lat;lon;timestamp;pressure;altitude;pressure_sealevel;temperature;humidity
13765;BME280;6953;48.810;9.204;2022-08-19T00:00:44;98226.22;;;23.65;74.49
13765;BME280;6953;48.810;9.204;2022-08-19T00:03:09;98262.34;;;23.85;74.49
13765;BME280;6953;48.810;9.204;2022-08-19T00:05:34;98217.38;;;23.57;74.74
13765;BME280;6953;48.810;9.204;2022-08-19T00:08:00;98225.75;;;23.62;74.82
13765;BME280;6953;48.810;9.204;2022-08-19T00:10:25;98264.03;;;23.78;75.07
13765;BME280;6953;48.810;9.204;2022-08-19T00:12:51;98151.44;;;23.10;75.30
13765;BME280;6953;48.810;9.204;2022-08-19T00:15:19;98256.16;;;23.77;75.32
13765;BME280;6953;48.810;9.204;2022-08-19T00:17:46;98279.81;;;23.73;75.46
13765;BME280;6953;48.810;9.204;2022-08-19T00:20:14;98270.91;;;23.73;75.67
13765;BME280;6953;48.810;9.204;2022-08-19T00:22:44;98224.63;;;23.48;75.47
13765;BME280;6953;48.810;9.204;2022-08-19T00:25:10;98189.59;;;23.12;75.70
13765;BME280;6953;48.810;9.204;2022-08-19T00:27:37;98264.41;;;23.67;75.94
13765;BME280;6953;48.810;9.204;2022-08-19T00:30:05;98273.25;;;23.68;75.96
13765;BME280;6953;48.810;9.204;2022-08-19T00:32:30;98267.41;;;23.64;75.97
13765;BME280;6953;48.810;9.204;2022-08-19T00:34:56;98225.97;;;23.44;76.08
13765;BME280;6953;48.810;9.204;2022-08-19T00:37:23;98227.63;;;23.53;75.92
13765;BME280;6953;48.810;9.204;2022-08-19T00:39:51;98236.97;;;23.57;76.00
13765;BME280;6953;48.810;9.204;2022-08-19T00:42:17;98228.44;;;23.62;76.03
13765;BME280;6953;48.810;9.204;2022-08-19T00:44:43;98201.19;;;23.42;75.97
13765;BME280;6953;48.810;9.204;2022-08-19T00:47:08;98233.78;;;23.62;76.03
13765;BME280;6953;48.810;9.204;2022-08-19T00:49:38;98145.41;;;23.08;76.04
13765;BME280;6953;48.810;9.204;2022-08-19T00:52:15;98186.53;;;23.30;76.00
13765;BME280;6953;48.810;9.204;2022-08-19T00:54:42;98253.53;;;23.61;76.14
13765;BME280;6953;48.810;9.204;2022-08-19T00:57:12;98218.28;;;23.41;76.08
13765;BME280;6953;48.810;9.204;2022-08-19T00:59:42;98247.84;;;23.64;76.12
13765;BME280;6953;48.810;9.204;2022-08-19T01:02:08;98160.78;;;23.13;76.12
13765;BME280;6953;48.810;9.204;2022-08-19T01:04:33;98230.66;;;23.42;76.38
13765;BME280;6953;48.810;9.204;2022-08-19T01:07:01;98232.34;;;23.35;76.07
13765;BME280;6953;48.810;9.204;2022-08-19T01:09:27;98271.44;;;23.60;76.21
13765;BME280;6953;48.810;9.204;2022-08-19T01:11:52;98256.03;;;23.62;76.13
13765;BME280;6953;48.810;9.204;2022-08-19T01:14:18;98195.91;;;23.26;76.23
13765;BME280;6953;48.810;9.204;2022-08-19T01:16:45;98192.03;;;23.29;76.26
13765;BME280;6953;48.810;9.204;2022-08-19T01:19:28;98244.50;;;23.62;76.26
13765;BME280;6953;48.810;9.204;2022-08-19T01:22:08;98241.81;;;23.62;76.38
13765;BME280;6953;48.810;9.204;2022-08-19T01:24:37;98233.81;;;23.46;76.43
13765;BME280;6953;48.810;9.204;2022-08-19T01:27:06;98157.13;;;23.07;76.49
13765;BME280;6953;48.810;9.204;2022-08-19T01:29:32;98193.56;;;23.23;76.53
13765;BME280;6953;48.810;9.204;2022-08-19T01:31:57;98191.56;;;23.17;76.78
13765;BME280;6953;48.810;9.204;2022-08-19T01:34:23;98223.63;;;23.41;76.67
13765;BME280;6953;48.810;9.204;2022-08-19T01:36:49;98239.50;;;23.51;77.03
13765;BME280;6953;48.810;9.204;2022-08-19T01:39:18;98242.84;;;23.53;76.96
13765;BME280;6953;48.810;9.204;2022-08-19T01:41:44;98239.00;;;23.47;77.24
13765;BME280;6953;48.810;9.204;2022-08-19T01:44:11;98105.00;;;22.63;77.05
13765;BME280;6953;48.810;9.204;2022-08-19T01:46:37;98221.47;;;23.29;77.40
13765;BME280;6953;48.810;9.204;2022-08-19T01:49:04;98149.78;;;22.93;77.49
13765;BME280;6953;48.810;9.204;2022-08-19T01:51:29;98244.53;;;23.46;77.38
13765;BME280;6953;48.810;9.204;2022-08-19T01:53:56;98243.03;;;23.43;77.70
13765;BME280;6953;48.810;9.204;2022-08-19T01:56:21;98233.84;;;23.38;77.92
13765;BME280;6953;48.810;9.204;2022-08-19T01:59:02;98149.59;;;22.86;78.00
13765;BME280;6953;48.810;9.204;2022-08-19T02:01:28;98251.75;;;23.37;78.08
13765;BME280;6953;48.810;9.204;2022-08-19T02:03:57;98179.38;;;22.91;78.24
13765;BME280;6953;48.810;9.204;2022-08-19T02:06:23;98245.09;;;23.33;78.53
13765;BME280;6953;48.810;9.204;2022-08-19T02:08:49;98247.25;;;23.30;78.60
13765;BME280;6953;48.810;9.204;2022-08-19T02:11:21;98239.88;;;23.24;78.69
13765;BME280;6953;48.810;9.204;2022-08-19T02:13:47;98262.84;;;23.26;79.14
13765;BME280;6953;48.810;9.204;2022-08-19T02:16:12;98230.03;;;23.16;79.14
13765;BME280;6953;48.810;9.204;2022-08-19T02:18:37;98260.00;;;23.20;79.55
13765;BME280;6953;48.810;9.204;2022-08-19T02:21:03;98144.66;;;22.59;79.58
13765;BME280;6953;48.810;9.204;2022-08-19T02:23:28;98249.78;;;23.15;80.00
13765;BME280;6953;48.810;9.204;2022-08-19T02:25:53;98242.44;;;23.10;80.23
13765;BME280;6953;48.810;9.204;2022-08-19T02:28:19;98207.16;;;22.82;80.48
13765;BME280;6953;48.810;9.204;2022-08-19T02:30:46;98259.81;;;23.06;80.76
13765;BME280;6953;48.810;9.204;2022-08-19T02:33:12;98267.34;;;23.02;80.90
13765;BME280;6953;48.810;9.204;2022-08-19T02:35:41;98263.69;;;23.03;80.99
13765;BME280;6953;48.810;9.204;2022-08-19T02:38:07;98213.84;;;22.78;81.14
13765;BME280;6953;48.810;9.204;2022-08-19T02:40:55;98207.66;;;22.70;81.44
13765;BME280;6953;48.810;9.204;2022-08-19T02:43:21;98203.47;;;22.59;81.96
13765;BME280;6953;48.810;9.204;2022-08-19T02:45:48;98201.81;;;22.58;82.23
13765;BME280;6953;48.810;9.204;2022-08-19T02:48:15;98256.81;;;22.85;82.47
13765;BME280;6953;48.810;9.204;2022-08-19T02:50:42;98174.88;;;22.36;82.49
13765;BME280;6953;48.810;9.204;2022-08-19T02:53:08;98131.41;;;22.10;82.61
13765;BME280;6953;48.810;9.204;2022-08-19T02:55:34;98190.59;;;22.47;83.01
13765;BME280;6953;48.810;9.204;2022-08-19T02:57:59;98235.06;;;22.64;83.01
13765;BME280;6953;48.810;9.204;2022-08-19T03:00:26;98205.31;;;22.43;83.09
13765;BME280;6953;48.810;9.204;2022-08-19T03:02:51;98237.91;;;22.70;83.33
13765;BME280;6953;48.810;9.204;2022-08-19T03:05:17;98192.13;;;22.41;83.30
13765;BME280;6953;48.810;9.204;2022-08-19T03:07:43;98231.72;;;22.62;83.82
13765;BME280;6953;48.810;9.204;2022-08-19T03:10:08;98117.66;;;21.81;83.83
13765;BME280;6953;48.810;9.204;2022-08-19T03:12:38;98152.09;;;22.00;84.26
13765;BME280;6953;48.810;9.204;2022-08-19T03:15:06;98135.69;;;21.79;84.63
13765;BME280;6953;48.810;9.204;2022-08-19T03:17:33;98192.66;;;22.03;85.25
13765;BME280;6953;48.810;9.204;2022-08-19T03:19:58;98189.16;;;21.95;85.70
13765;BME280;6953;48.810;9.204;2022-08-19T03:22:24;98261.06;;;22.30;85.79
13765;BME280;6953;48.810;9.204;2022-08-19T03:24:50;98170.41;;;21.79;85.76
13765;BME280;6953;48.810;9.204;2022-08-19T03:27:15;98263.28;;;22.34;85.67
13765;BME280;6953;48.810;9.204;2022-08-19T03:29:42;98262.78;;;22.39;85.21
13765;BME280;6953;48.810;9.204;2022-08-19T03:32:07;98248.91;;;22.35;85.08
13765;BME280;6953;48.810;9.204;2022-08-19T03:34:36;98188.19;;;22.04;85.13
13765;BME280;6953;48.810;9.204;2022-08-19T03:37:10;98171.13;;;21.97;84.92
13765;BME280;6953;48.810;9.204;2022-08-19T03:39:38;98226.47;;;22.20;85.22
13765;BME280;6953;48.810;9.204;2022-08-19T03:42:04;98272.66;;;22.38;85.11
13765;BME280;6953;48.810;9.204;2022-08-19T03:44:31;98258.09;;;22.41;85.04
13765;BME280;6953;48.810;9.204;2022-08-19T03:46:58;98195.84;;;21.99;85.09
13765;BME280;6953;48.810;9.204;2022-08-19T03:49:28;98256.63;;;22.38;85.20
13765;BME280;6953;48.810;9.204;2022-08-19T03:51:55;98209.41;;;22.13;85.13
13765;BME280;6953;48.810;9.204;2022-08-19T03:54:22;98242.19;;;22.31;85.33
13765;BME280;6953;48.810;9.204;2022-08-19T03:56:50;98245.00;;;22.22;85.30
13765;BME280;6953;48.810;9.204;2022-08-19T03:59:21;98178.28;;;21.81;85.71
13765;BME280;6953;48.810;9.204;2022-08-19T04:01:48;98160.53;;;21.72;85.59
13765;BME280;6953;48.810;9.204;2022-08-19T04:04:13;98267.41;;;22.29;85.45
13765;BME280;6953;48.810;9.204;2022-08-19T04:06:39;98217.72;;;22.02;85.50
13765;BME280;6953;48.810;9.204;2022-08-19T04:09:07;98176.94;;;21.77;85.55
13765;BME280;6953;48.810;9.204;2022-08-19T04:11:54;98270.25;;;22.27;85.92
13765;BME280;6953;48.810;9.204;2022-08-19T04:14:23;98272.09;;;22.27;85.72
13765;BME280;6953;48.810;9.204;2022-08-19T04:16:49;98264.75;;;22.29;86.06
13765;BME280;6953;48.810;9.204;2022-08-19T04:19:16;98265.88;;;22.26;85.96
13765;BME280;6953;48.810;9.204;2022-08-19T04:21:47;98266.41;;;22.30;85.71
13765;BME280;6953;48.810;9.204;2022-08-19T04:24:13;98262.91;;;22.29;85.84
13765;BME280;6953;48.810;9.204;2022-08-19T04:26:38;98188.13;;;21.80;85.66
13765;BME280;6953;48.810;9.204;2022-08-19T04:29:16;98248.50;;;22.22;85.61
13765;BME280;6953;48.810;9.204;2022-08-19T04:31:43;98263.91;;;22.28;85.87
13765;BME280;6953;48.810;9.204;2022-08-19T04:34:12;98089.75;;;21.18;85.70
13765;BME280;6953;48.810;9.204;2022-08-19T04:36:39;98157.19;;;21.70;85.58
13765;BME280;6953;48.810;9.204;2022-08-19T04:39:08;98257.22;;;22.32;85.76
13765;BME280;6953;48.810;9.204;2022-08-19T04:41:35;98273.13;;;22.34;85.44
13765;BME280;6953;48.810;9.204;2022-08-19T04:44:19;98262.28;;;22.35;85.33
13765;BME280;6953;48.810;9.204;2022-08-19T04:46:46;98270.31;;;22.35;85.49
13765;BME280;6953;48.810;9.204;2022-08-19T04:49:13;98265.44;;;22.31;85.13
13765;BME280;6953;48.810;9.204;2022-08-19T04:51:41;98267.31;;;22.38;85.10
13765;BME280;6953;48.810;9.204;2022-08-19T04:54:08;98268.44;;;22.36;85.05
13765;BME280;6953;48.810;9.204;2022-08-19T04:56:33;98274.50;;;22.46;84.80
13765;BME280;6953;48.810;9.204;2022-08-19T04:58:59;98273.50;;;22.47;84.36
13765;BME280;6953;48.810;9.204;2022-08-19T05:01:28;98276.19;;;22.47;84.60
13765;BME280;6953;48.810;9.204;2022-08-19T05:03:55;98226.94;;;22.16;84.48
13765;BME280;6953;48.810;9.204;2022-08-19T05:06:22;98284.03;;;22.48;84.65
13765;BME280;6953;48.810;9.204;2022-08-19T05:08:49;98292.91;;;22.49;84.44
13765;BME280;6953;48.810;9.204;2022-08-19T05:11:26;98284.69;;;22.50;84.26
13765;BME280;6953;48.810;9.204;2022-08-19T05:13:52;98290.03;;;22.50;84.21
13765;BME280;6953;48.810;9.204;2022-08-19T05:16:19;98249.53;;;22.21;84.39
13765;BME280;6953;48.810;9.204;2022-08-19T05:18:46;98304.28;;;22.51;84.18
13765;BME280;6953;48.810;9.204;2022-08-19T05:21:30;98302.44;;;22.59;83.95
13765;BME280;6953;48.810;9.204;2022-08-19T05:24:15;98314.63;;;22.62;83.60
13765;BME280;6953;48.810;9.204;2022-08-19T05:26:43;98328.03;;;22.70;83.40
13765;BME280;6953;48.810;9.204;2022-08-19T05:29:11;98254.53;;;22.24;83.15
13765;BME280;6953;48.810;9.204;2022-08-19T05:31:37;98348.75;;;22.76;83.03
13765;BME280;6953;48.810;9.204;2022-08-19T05:34:04;98349.63;;;22.76;82.73
13765;BME280;6953;48.810;9.204;2022-08-19T05:36:35;98269.41;;;22.27;82.75
13765;BME280;6953;48.810;9.204;2022-08-19T05:39:03;98351.63;;;22.74;82.89
13765;BME280;6953;48.810;9.204;2022-08-19T05:41:29;98242.13;;;22.07;82.53
13765;BME280;6953;48.810;9.204;2022-08-19T05:44:03;98368.00;;;22.87;82.52
13765;BME280;6953;48.810;9.204;2022-08-19T05:46:30;98309.63;;;22.51;82.52
13765;BME280;6953;48.810;9.204;2022-08-19T05:48:56;98315.28;;;22.56;82.51
13765;BME280;6953;48.810;9.204;2022-08-19T05:51:23;98358.50;;;22.85;82.68
13765;BME280;6953;48.810;9.204;2022-08-19T05:53:49;98331.03;;;22.67;82.38
13765;BME280;6953;48.810;9.204;2022-08-19T05:56:15;98300.25;;;22.47;82.48
13765;BME280;6953;48.810;9.204;2022-08-19T05:58:42;98364.84;;;22.84;82.86
13765;BME280;6953;48.810;9.204;2022-08-19T06:01:13;98340.91;;;22.74;82.75
13765;BME280;6953;48.810;9.204;2022-08-19T06:03:39;98340.88;;;22.66;82.69
13765;BME280;6953;48.810;9.204;2022-08-19T06:06:05;98275.44;;;22.29;82.97
13765;BME280;6953;48.810;9.204;2022-08-19T06:08:32;98290.53;;;22.46;82.46
13765;BME280;6953;48.810;9.204;2022-08-19T06:11:15;98251.69;;;22.26;82.56
13765;BME280;6953;48.810;9.204;2022-08-19T06:13:40;98356.16;;;22.98;82.22
13765;BME280;6953;48.810;9.204;2022-08-19T06:16:05;98359.50;;;22.92;82.49
13765;BME280;6953;48.810;9.204;2022-08-19T06:18:31;98279.31;;;22.42;82.22
13765;BME280;6953;48.810;9.204;2022-08-19T06:20:57;98293.72;;;22.41;82.38
13765;BME280;6953;48.810;9.204;2022-08-19T06:23:22;98361.84;;;22.87;83.12
13765;BME280;6953;48.810;9.204;2022-08-19T06:25:47;98135.03;;;21.02;85.52
13765;BME280;6953;48.810;9.204;2022-08-19T06:28:13;98268.19;;;21.72;86.60
13765;BME280;6953;48.810;9.204;2022-08-19T06:30:38;98365.94;;;22.16;87.85
13765;BME280;6953;48.810;9.204;2022-08-19T06:33:03;98364.16;;;21.91;89.39
13765;BME280;6953;48.810;9.204;2022-08-19T06:35:29;98293.75;;;21.24;91.59
13765;BME280;6953;48.810;9.204;2022-08-19T06:37:55;98360.66;;;21.48;93.65
13765;BME280;6953;48.810;9.204;2022-08-19T06:40:20;98364.53;;;21.28;95.42
13765;BME280;6953;48.810;9.204;2022-08-19T06:42:46;98363.41;;;21.13;96.24
13765;BME280;6953;48.810;9.204;2022-08-19T06:45:11;98302.78;;;20.71;97.58
13765;BME280;6953;48.810;9.204;2022-08-19T06:47:36;98318.78;;;20.71;97.73
13765;BME280;6953;48.810;9.204;2022-08-19T06:50:02;98386.22;;;21.07;98.59
13765;BME280;6953;48.810;9.204;2022-08-19T06:52:33;98375.06;;;21.12;98.73
13765;BME280;6953;48.810;9.204;2022-08-19T06:55:01;98379.13;;;21.16;99.06
13765;BME280;6953;48.810;9.204;2022-08-19T06:57:27;98342.91;;;20.96;98.68
13765;BME280;6953;48.810;9.204;2022-08-19T06:59:53;98204.25;;;20.26;98.70
13765;BME280;6953;48.810;9.204;2022-08-19T07:02:19;98344.22;;;21.09;98.59
13765;BME280;6953;48.810;9.204;2022-08-19T07:04:45;98374.59;;;21.34;98.18
13765;BME280;6953;48.810;9.204;2022-08-19T07:07:13;98280.88;;;20.94;96.96
13765;BME280;6953;48.810;9.204;2022-08-19T07:09:43;98373.34;;;21.71;95.20
13765;BME280;6953;48.810;9.204;2022-08-19T07:12:11;98318.31;;;21.78;93.29
13765;BME280;6953;48.810;9.204;2022-08-19T07:14:38;98362.13;;;22.26;91.60
13765;BME280;6953;48.810;9.204;2022-08-19T07:17:09;98313.53;;;22.31;89.49
13765;BME280;6953;48.810;9.204;2022-08-19T07:19:35;98365.00;;;22.74;87.97
13765;BME280;6953;48.810;9.204;2022-08-19T07:22:03;98388.00;;;23.09;86.11
13765;BME280;6953;48.810;9.204;2022-08-19T07:24:30;98353.81;;;22.95;85.68
13765;BME280;6953;48.810;9.204;2022-08-19T07:26:58;98394.19;;;23.17;84.65
13765;BME280;6953;48.810;9.204;2022-08-19T07:29:26;98388.31;;;23.13;84.70
13765;BME280;6953;48.810;9.204;2022-08-19T07:31:53;98333.25;;;22.79;84.17
13765;BME280;6953;48.810;9.204;2022-08-19T07:34:22;98391.84;;;23.14;83.95
13765;BME280;6953;48.810;9.204;2022-08-19T07:36:49;98387.50;;;23.13;83.80
13765;BME280;6953;48.810;9.204;2022-08-19T07:39:35;98364.19;;;22.90;83.44
13765;BME280;6953;48.810;9.204;2022-08-19T07:42:04;98296.56;;;22.48;83.79
13765;BME280;6953;48.810;9.204;2022-08-19T07:44:32;98409.72;;;23.06;83.56
13765;BME280;6953;48.810;9.204;2022-08-19T07:46:59;98402.84;;;23.03;83.28
13765;BME280;6953;48.810;9.204;2022-08-19T07:49:25;98336.72;;;22.64;83.36
13765;BME280;6953;48.810;9.204;2022-08-19T07:52:01;98401.19;;;23.02;83.28
13765;BME280;6953;48.810;9.204;2022-08-19T07:54:29;98387.81;;;23.02;83.20
13765;BME280;6953;48.810;9.204;2022-08-19T07:56:56;98337.53;;;22.64;83.21
13765;BME280;6953;48.810;9.204;2022-08-19T07:59:23;98406.19;;;22.97;83.58
13765;BME280;6953;48.810;9.204;2022-08-19T08:01:48;98403.63;;;22.72;84.87
13765;BME280;6953;48.810;9.204;2022-08-19T08:04:15;98405.72;;;22.19;88.66
13765;BME280;6953;48.810;9.204;2022-08-19T08:06:59;98404.38;;;21.64;92.29
13765;BME280;6953;48.810;9.204;2022-08-19T08:09:44;98374.06;;;21.13;95.44
13765;BME280;6953;48.810;9.204;2022-08-19T08:12:15;98338.16;;;20.73;97.27
13765;BME280;6953;48.810;9.204;2022-08-19T08:14:46;98303.06;;;20.33;98.67
13765;BME280;6953;48.810;9.204;2022-08-19T08:17:13;98412.78;;;20.82;100.00
13765;BME280;6953;48.810;9.204;2022-08-19T08:19:39;98412.09;;;20.80;100.00
13765;BME280;6953;48.810;9.204;2022-08-19T08:22:06;98273.59;;;19.90;100.00
13765;BME280;6953;48.810;9.204;2022-08-19T08:24:32;98423.94;;;20.68;100.00
13765;BME280;6953;48.810;9.204;2022-08-19T08:26:59;98417.91;;;20.66;100.00
13765;BME280;6953;48.810;9.204;2022-08-19T08:29:29;98296.28;;;19.94;100.00
13765;BME280;6953;48.810;9.204;2022-08-19T08:31:55;98347.97;;;20.10;100.00
13765;BME280;6953;48.810;9.204;2022-08-19T08:34:21;98426.03;;;20.47;100.00
13765;BME280;6953;48.810;9.204;2022-08-19T08:36:47;98366.44;;;20.12;100.00
13765;BME280;6953;48.810;9.204;2022-08-19T08:39:17;98378.00;;;20.30;100.00
13765;BME280;6953;48.810;9.204;2022-08-19T08:42:09;98316.75;;;20.03;100.00
13765;BME280;6953;48.810;9.204;2022-08-19T08:47:09;98385.53;;;20.79;100.00
13765;BME280;6953;48.810;9.204;2022-08-19T08:49:57;98408.97;;;21.02;100.00
13765;BME280;6953;48.810;9.204;2022-08-19T08:52:30;98337.31;;;20.72;100.00
13765;BME280;6953;48.810;9.204;2022-08-19T08:55:00;98361.28;;;20.99;100.00
13765;BME280;6953;48.810;9.204;2022-08-19T09:00:26;98386.19;;;21.68;100.00
13765;BME280;6953;48.810;9.204;2022-08-19T09:02:54;98369.34;;;21.67;100.00
13765;BME280;6953;48.810;9.204;2022-08-19T09:05:20;98414.28;;;21.97;100.00
13765;BME280;6953;48.810;9.204;2022-08-19T09:07:49;98414.22;;;22.22;98.37
13765;BME280;6953;48.810;9.204;2022-08-19T09:10:38;98401.31;;;22.85;94.67
13765;BME280;6953;48.810;9.204;2022-08-19T09:15:43;98401.88;;;23.76;89.44
13765;BME280;6953;48.810;9.204;2022-08-19T09:18:10;98395.88;;;23.82;87.12
13765;BME280;6953;48.810;9.204;2022-08-19T09:20:36;98320.22;;;23.32;86.22
13765;BME280;6953;48.810;9.204;2022-08-19T09:23:02;98369.06;;;23.50;87.70
13765;BME280;6953;48.810;9.204;2022-08-19T09:25:27;98412.94;;;23.49;89.08
13765;BME280;6953;48.810;9.204;2022-08-19T09:27:54;98350.31;;;22.94;90.30
13765;BME280;6953;48.810;9.204;2022-08-19T09:30:26;98365.53;;;22.86;90.11
13765;BME280;6953;48.810;9.204;2022-08-19T09:32:52;98410.09;;;23.34;89.87
13765;BME280;6953;48.810;9.204;2022-08-19T09:35:20;98422.16;;;23.70;88.61
13765;BME280;6953;48.810;9.204;2022-08-19T09:37:47;98422.16;;;23.94;86.63
13765;BME280;6953;48.810;9.204;2022-08-19T09:40:14;98403.03;;;24.05;85.15
13765;BME280;6953;48.810;9.204;2022-08-19T09:42:40;98360.66;;;24.01;84.04
13765;BME280;6953;48.810;9.204;2022-08-19T09:45:09;98422.84;;;24.50;83.21
13765;BME280;6953;48.810;9.204;2022-08-19T09:47:35;98303.03;;;23.89;82.83
13765;BME280;6953;48.810;9.204;2022-08-19T09:50:04;98420.59;;;24.62;82.22
13765;BME280;6953;48.810;9.204;2022-08-19T09:52:30;98424.94;;;24.71;82.33
13765;BME280;6953;48.810;9.204;2022-08-19T09:54:56;98381.94;;;24.48;82.48
13765;BME280;6953;48.810;9.204;2022-08-19T09:57:21;98424.44;;;24.67;80.55
13765;BME280;6953;48.810;9.204;2022-08-19T09:59:46;98405.56;;;24.53;80.94
13765;BME280;6953;48.810;9.204;2022-08-19T10:02:13;98405.56;;;24.45;81.04
13765;BME280;6953;48.810;9.204;2022-08-19T10:07:22;98429.09;;;24.73;80.90
13765;BME280;6953;48.810;9.204;2022-08-19T10:09:47;98428.22;;;24.81;80.57
13765;BME280;6953;48.810;9.204;2022-08-19T10:12:12;98427.75;;;24.77;79.86
13765;BME280;6953;48.810;9.204;2022-08-19T10:14:40;98423.06;;;24.79;80.03
13765;BME280;6953;48.810;9.204;2022-08-19T10:17:06;98415.25;;;24.92;79.58
13765;BME280;6953;48.810;9.204;2022-08-19T10:19:31;98418.22;;;25.05;79.23
13765;BME280;6953;48.810;9.204;2022-08-19T10:22:03;98416.81;;;25.17;78.17
13765;BME280;6953;48.810;9.204;2022-08-19T10:24:29;98359.06;;;24.91;77.83
13765;BME280;6953;48.810;9.204;2022-08-19T10:26:56;98416.31;;;25.36;77.32
13765;BME280;6953;48.810;9.204;2022-08-19T10:29:21;98412.56;;;25.45;76.83
13765;BME280;6953;48.810;9.204;2022-08-19T10:31:46;98391.44;;;25.42;75.81
13765;BME280;6953;48.810;9.204;2022-08-19T10:34:12;98406.50;;;25.65;75.36
13765;BME280;6953;48.810;9.204;2022-08-19T10:36:37;98384.44;;;25.55;74.73
13765;BME280;6953;48.810;9.204;2022-08-19T10:39:06;98403.53;;;25.83;74.79
13765;BME280;6953;48.810;9.204;2022-08-19T10:41:36;98403.34;;;25.99;73.92
13765;BME280;6953;48.810;9.204;2022-08-19T10:44:05;98390.00;;;26.05;73.41
13765;BME280;6953;48.810;9.204;2022-08-19T10:46:33;98412.19;;;26.22;71.44
13765;BME280;6953;48.810;9.204;2022-08-19T10:49:00;98371.38;;;26.18;70.72
13765;BME280;6953;48.810;9.204;2022-08-19T10:51:26;98403.22;;;26.43;71.71
13765;BME280;6953;48.810;9.204;2022-08-19T10:54:10;98399.47;;;26.30;70.61
13765;BME280;6953;48.810;9.204;2022-08-19T10:56:36;98388.34;;;26.19;71.05
13765;BME280;6953;48.810;9.204;2022-08-19T10:59:22;98400.03;;;26.11;71.32
13765;BME280;6953;48.810;9.204;2022-08-19T11:01:49;98391.19;;;25.88;71.53
13765;BME280;6953;48.810;9.204;2022-08-19T11:04:15;98415.81;;;25.77;72.27
13765;BME280;6953;48.810;9.204;2022-08-19T11:06:47;98405.22;;;25.76;72.05
13765;BME280;6953;48.810;9.204;2022-08-19T11:09:15;98337.34;;;25.45;71.51
13765;BME280;6953;48.810;9.204;2022-08-19T11:11:42;98396.56;;;25.88;70.87
13765;BME280;6953;48.810;9.204;2022-08-19T11:14:10;98393.88;;;25.88;71.09
13765;BME280;6953;48.810;9.204;2022-08-19T11:16:35;98401.97;;;26.03;70.86
13765;BME280;6953;48.810;9.204;2022-08-19T11:19:03;98399.03;;;26.27;70.07
13765;BME280;6953;48.810;9.204;2022-08-19T11:21:31;98307.63;;;25.90;68.99
13765;BME280;6953;48.810;9.204;2022-08-19T11:23:59;98405.97;;;26.64;68.50
13765;BME280;6953;48.810;9.204;2022-08-19T11:26:26;98360.97;;;26.58;68.25
13765;BME280;6953;48.810;9.204;2022-08-19T11:28:51;98399.63;;;26.86;67.12
13765;BME280;6953;48.810;9.204;2022-08-19T11:31:22;98306.88;;;26.39;65.77
13765;BME280;6953;48.810;9.204;2022-08-19T11:33:48;98405.34;;;26.98;65.52
13765;BME280;6953;48.810;9.204;2022-08-19T11:36:16;98371.75;;;26.94;64.88
13765;BME280;6953;48.810;9.204;2022-08-19T11:38:42;98405.47;;;27.25;65.44
13765;BME280;6953;48.810;9.204;2022-08-19T11:41:08;98332.16;;;26.94;63.74
13765;BME280;6953;48.810;9.204;2022-08-19T11:43:34;98386.16;;;27.22;64.01
13765;BME280;6953;48.810;9.204;2022-08-19T11:46:04;98388.66;;;27.23;64.11
13765;BME280;6953;48.810;9.204;2022-08-19T11:48:32;98405.91;;;27.08;64.21
13765;BME280;6953;48.810;9.204;2022-08-19T11:50:57;98407.94;;;27.06;64.06
13765;BME280;6953;48.810;9.204;2022-08-19T11:53:23;98409.63;;;27.07;65.34
13765;BME280;6953;48.810;9.204;2022-08-19T11:55:49;98350.25;;;26.65;63.82
13765;BME280;6953;48.810;9.204;2022-08-19T11:58:16;98336.84;;;26.50;64.46
13765;BME280;6953;48.810;9.204;2022-08-19T12:00:42;98399.88;;;26.91;64.31
13765;BME280;6953;48.810;9.204;2022-08-19T12:03:11;98347.06;;;26.55;65.01
13765;BME280;6953;48.810;9.204;2022-08-19T12:05:38;98317.38;;;26.34;66.28
13765;BME280;6953;48.810;9.204;2022-08-19T12:08:03;98398.13;;;26.84;67.14
13765;BME280;6953;48.810;9.204;2022-08-19T12:10:29;98375.34;;;26.65;67.26
13765;BME280;6953;48.810;9.204;2022-08-19T12:12:54;98380.53;;;26.67;66.94
13765;BME280;6953;48.810;9.204;2022-08-19T12:15:20;98410.50;;;26.78;67.15
13765;BME280;6953;48.810;9.204;2022-08-19T12:17:45;98348.00;;;26.47;66.74
13765;BME280;6953;48.810;9.204;2022-08-19T12:20:12;98407.63;;;26.80;67.52
13765;BME280;6953;48.810;9.204;2022-08-19T12:22:39;98329.31;;;26.32;70.54
13765;BME280;6953;48.810;9.204;2022-08-19T12:25:07;98394.19;;;26.37;74.74
13765;BME280;6953;48.810;9.204;2022-08-19T12:27:33;98398.72;;;25.93;78.42
13765;BME280;6953;48.810;9.204;2022-08-19T12:29:58;98398.34;;;25.59;80.17
13765;BME280;6953;48.810;9.204;2022-08-19T12:32:26;98331.91;;;24.86;82.60
13765;BME280;6953;48.810;9.204;2022-08-19T12:34:51;98402.09;;;25.05;83.65
13765;BME280;6953;48.810;9.204;2022-08-19T12:37:17;98327.75;;;24.53;85.05
13765;BME280;6953;48.810;9.204;2022-08-19T12:39:42;98394.09;;;24.97;86.04
13765;BME280;6953;48.810;9.204;2022-08-19T12:42:10;98398.56;;;25.05;86.65
13765;BME280;6953;48.810;9.204;2022-08-19T12:44:38;98401.03;;;25.14;86.73
13765;BME280;6953;48.810;9.204;2022-08-19T12:47:05;98387.25;;;25.17;85.94
13765;BME280;6953;48.810;9.204;2022-08-19T12:49:32;98354.22;;;25.17;85.21
13765;BME280;6953;48.810;9.204;2022-08-19T12:52:05;98338.38;;;25.22;83.96
13765;BME280;6953;48.810;9.204;2022-08-19T12:54:31;98371.47;;;25.59;83.27
13765;BME280;6953;48.810;9.204;2022-08-19T12:56:57;98373.13;;;25.60;82.58
13765;BME280;6953;48.810;9.204;2022-08-19T12:59:23;98339.66;;;25.48;82.60
13765;BME280;6953;48.810;9.204;2022-08-19T13:01:48;98380.22;;;25.75;82.91
13765;BME280;6953;48.810;9.204;2022-08-19T13:04:14;98354.28;;;25.45;83.52
13765;BME280;6953;48.810;9.204;2022-08-19T13:06:40;98420.59;;;25.67;84.13
13765;BME280;6953;48.810;9.204;2022-08-19T13:09:07;98327.44;;;25.01;84.92
13765;BME280;6953;48.810;9.204;2022-08-19T13:11:32;98421.91;;;25.34;86.04
13765;BME280;6953;48.810;9.204;2022-08-19T13:13:59;98422.03;;;25.11;86.83
13765;BME280;6953;48.810;9.204;2022-08-19T13:16:25;98336.16;;;24.42;88.42
13765;BME280;6953;48.810;9.204;2022-08-19T13:18:53;98425.75;;;24.79;89.50
13765;BME280;6953;48.810;9.204;2022-08-19T13:21:20;98422.91;;;24.73;90.05
13765;BME280;6953;48.810;9.204;2022-08-19T13:23:46;98381.63;;;24.35;90.77